Time;durP1;ratioP1;P1;durP2;ratioP2;P2;SDS_P1;SDS_P2;PMS_P1;PMS_P2;Temp;Humidity;BMP_temperature;BMP_pressure;BME280_temperature;BME280_humidity;BME280_pressure;Samples;Min_cycle;Max_cycle;Signal;HPM_P1;HPM_P2
2023/03/16 00:02:02;;;;;;;0.10;0.10;;;0.90;99.90;;;;;;5026090;28;20186;-87
2023/03/16 00:04:29;;;;;;;0.10;0.10;;;0.90;99.90;;;;;;5017178;28;20188;-87
2023/03/16 00:06:55;;;;;;;0.10;0.10;;;0.80;99.90;;;;;;5016549;28;20211;-87
2023/03/16 00:09:20;;;;;;;0.10;0.10;;;0.70;99.90;;;;;;5018008;28;20702;-87
2023/03/16 00:11:46;;;;;;;0.10;0.10;;;0.70;99.90;;;;;;5017859;28;20225;-87
2023/03/16 00:14:11;;;;;;;0.10;0.10;;;0.60;99.90;;;;;;5034632;28;20189;-87
2023/03/16 00:16:37;;;;;;;0.10;0.10;;;0.60;99.90;;;;;;5016636;28;20192;-87
2023/03/16 00:19:04;;;;;;;0.10;0.10;;;0.50;99.90;;;;;;5016824;28;20229;-86
2023/03/16 00:21:30;;;;;;;0.10;0.10;;;0.50;99.90;;;;;;5017436;28;21228;-86
2023/03/16 00:23:59;;;;;;;0.10;0.10;;;0.50;99.90;;;;;;5016459;28;20243;-87
2023/03/16 00:26:25;;;;;;;0.10;0.10;;;0.50;99.90;;;;;;5016831;28;20212;-86
2023/03/16 00:28:53;;;;;;;0.10;0.10;;;0.50;99.90;;;;;;5026012;28;20656;-87
2023/03/16 00:31:19;;;;;;;0.10;0.10;;;0.60;99.90;;;;;;5017142;28;20304;-87
2023/03/16 00:33:44;;;;;;;0.10;0.10;;;0.60;99.90;;;;;;5016129;28;20179;-86
2023/03/16 00:36:10;;;;;;;0.10;0.10;;;0.50;99.90;;;;;;5017725;28;20675;-87
2023/03/16 00:38:44;;;;;;;0.10;0.10;;;0.50;99.90;;;;;;5016550;28;20716;-87
2023/03/16 00:41:13;;;;;;;0.10;0.10;;;0.50;99.90;;;;;;5015605;28;21189;-87
2023/03/16 00:43:39;;;;;;;0.10;0.10;;;0.60;99.90;;;;;;5015268;28;20216;-86
2023/03/16 00:46:07;;;;;;;0.10;0.10;;;0.70;99.90;;;;;;5013599;28;20195;-87
2023/03/16 00:48:34;;;;;;;0.10;0.10;;;0.80;99.90;;;;;;5017858;28;20705;-87
2023/03/16 00:51:05;;;;;;;0.10;0.10;;;0.80;99.90;;;;;;5014182;28;20222;-87
2023/03/16 00:53:32;;;;;;;0.10;0.10;;;0.70;99.90;;;;;;5034165;28;20185;-87
2023/03/16 00:55:58;;;;;;;0.00;0.00;;;0.60;99.90;;;;;;5014417;28;20192;-87
2023/03/16 00:58:24;;;;;;;0.10;0.10;;;0.60;99.90;;;;;;5016828;28;20226;-87
2023/03/16 01:00:52;;;;;;;0.10;0.10;;;0.60;99.90;;;;;;5016094;28;20200;-86
2023/03/16 01:03:17;;;;;;;0.07;0.07;;;0.60;99.90;;;;;;5016354;28;21120;-88
2023/03/16 01:05:43;;;;;;;0.10;0.10;;;0.60;99.90;;;;;;5015041;28;20189;-87
2023/03/16 01:08:08;;;;;;;0.10;0.10;;;0.60;99.90;;;;;;5016359;28;20247;-87
2023/03/16 01:10:35;;;;;;;0.10;0.10;;;0.60;99.90;;;;;;5015678;28;20193;-87
2023/03/16 01:13:02;;;;;;;0.00;0.00;;;0.70;99.90;;;;;;5014979;28;20192;-87
2023/03/16 01:15:28;;;;;;;0.10;0.10;;;0.80;99.90;;;;;;5014722;28;20252;-87
2023/03/16 01:17:54;;;;;;;0.00;0.00;;;0.90;99.90;;;;;;5024863;28;20196;-87
2023/03/16 01:20:19;;;;;;;0.10;0.10;;;0.80;99.90;;;;;;5033646;28;20208;-87
2023/03/16 01:22:45;;;;;;;0.10;0.10;;;0.90;99.90;;;;;;5016916;28;20199;-86
2023/03/16 01:25:11;;;;;;;0.10;0.10;;;1.00;99.90;;;;;;5015474;28;20201;-87
2023/03/16 01:27:37;;;;;;;0.10;0.10;;;1.00;99.90;;;;;;5015244;28;20193;-87
2023/03/16 01:30:04;;;;;;;0.10;0.10;;;1.10;99.90;;;;;;5016148;28;20193;-86
2023/03/16 01:32:30;;;;;;;0.10;0.10;;;1.00;99.90;;;;;;5015209;28;20675;-87
2023/03/16 01:34:56;;;;;;;0.10;0.10;;;1.00;99.90;;;;;;5024289;28;20198;-87
2023/03/16 01:37:22;;;;;;;0.00;0.00;;;1.00;99.90;;;;;;5015241;28;20554;-87
2023/03/16 01:39:48;;;;;;;0.10;0.10;;;1.00;99.90;;;;;;5016780;28;20205;-87
2023/03/16 01:42:14;;;;;;;0.10;0.10;;;1.10;99.90;;;;;;5024757;28;20197;-87
2023/03/16 01:44:55;;;;;;;0.10;0.10;;;1.30;99.90;;;;;;5015842;28;20197;-87
2023/03/16 01:47:22;;;;;;;0.03;0.03;;;1.30;99.90;;;;;;5015242;28;22382;-86
2023/03/16 01:49:53;;;;;;;0.10;0.10;;;1.40;99.90;;;;;;5033183;28;20295;-87
2023/03/16 01:52:22;;;;;;;0.10;0.10;;;1.40;99.90;;;;;;5032895;28;20761;-87
2023/03/16 01:54:59;;;;;;;0.10;0.10;;;1.40;99.90;;;;;;5015556;28;20306;-86
2023/03/16 01:57:29;;;;;;;0.10;0.10;;;1.10;99.90;;;;;;5024239;28;20184;-87
2023/03/16 02:00:06;;;;;;;0.10;0.10;;;1.00;99.90;;;;;;5017633;28;20195;-87
2023/03/16 02:02:32;;;;;;;0.10;0.10;;;0.90;99.90;;;;;;5015952;28;20181;-87
2023/03/16 02:05:13;;;;;;;0.10;0.10;;;0.70;99.90;;;;;;5035723;28;20196;-87
2023/03/16 02:07:50;;;;;;;0.10;0.10;;;0.70;99.90;;;;;;5039487;28;20169;-87
2023/03/16 02:10:17;;;;;;;0.10;0.10;;;0.80;99.90;;;;;;5028608;28;20190;-87
2023/03/16 02:12:43;;;;;;;0.10;0.10;;;0.80;99.90;;;;;;5026085;28;20200;-86
2023/03/16 02:15:10;;;;;;;0.10;0.10;;;0.90;99.90;;;;;;5022364;28;20245;-87
2023/03/16 02:17:36;;;;;;;0.10;0.10;;;0.90;99.90;;;;;;5020203;28;21480;-87
2023/03/16 02:20:12;;;;;;;0.00;0.00;;;0.80;99.90;;;;;;5021295;28;20194;-87
2023/03/16 02:22:46;;;;;;;0.10;0.10;;;0.70;99.90;;;;;;5029210;28;20184;-87
2023/03/16 02:25:15;;;;;;;0.10;0.10;;;0.60;99.90;;;;;;5028354;28;20229;-86
2023/03/16 02:28:07;;;;;;;0.10;0.10;;;0.50;99.90;;;;;;5017424;28;20284;-87
2023/03/16 02:30:33;;;;;;;0.10;0.10;;;0.40;99.90;;;;;;5020276;28;20233;-86
2023/03/16 02:32:59;;;;;;;0.00;0.00;;;0.40;99.90;;;;;;5018609;28;20655;-87
2023/03/16 02:35:24;;;;;;;0.00;0.00;;;0.40;99.90;;;;;;5036844;28;20191;-87
2023/03/16 02:37:51;;;;;;;0.10;0.10;;;0.40;99.90;;;;;;5019599;28;20189;-86
2023/03/16 02:40:27;;;;;;;0.00;0.00;;;0.40;99.90;;;;;;5035474;28;21011;-86
2023/03/16 02:43:03;;;;;;;0.00;0.00;;;0.40;99.90;;;;;;5017408;28;20250;-87
2023/03/16 02:45:37;;;;;;;0.10;0.10;;;0.50;99.90;;;;;;5036051;28;20204;-86
2023/03/16 02:48:13;;;;;;;0.10;0.10;;;0.50;99.90;;;;;;5018682;28;20274;-87
2023/03/16 02:50:45;;;;;;;0.10;0.10;;;0.60;99.90;;;;;;5018604;28;20272;-87
2023/03/16 02:53:12;;;;;;;0.10;0.10;;;0.80;99.90;;;;;;5036432;28;20180;-87
2023/03/16 02:55:37;;;;;;;0.00;0.00;;;0.80;99.90;;;;;;5018456;28;20699;-86
2023/03/16 02:58:03;;;;;;;0.10;0.10;;;0.80;99.90;;;;;;5018505;28;20266;-86
2023/03/16 03:00:28;;;;;;;0.10;0.10;;;0.80;99.90;;;;;;5017975;28;20181;-87
2023/03/16 03:02:54;;;;;;;0.10;0.10;;;0.80;99.90;;;;;;5017434;28;20185;-87
2023/03/16 03:05:20;;;;;;;0.10;0.10;;;0.80;99.90;;;;;;5018540;28;20193;-86
2023/03/16 03:07:46;;;;;;;0.10;0.10;;;0.90;99.90;;;;;;5017850;28;20630;-87
2023/03/16 03:10:11;;;;;;;0.03;0.03;;;0.90;99.90;;;;;;5016347;28;20595;-87
2023/03/16 03:12:37;;;;;;;0.10;0.10;;;0.70;99.90;;;;;;5017316;28;20252;-87
2023/03/16 03:15:03;;;;;;;0.00;0.00;;;0.80;99.90;;;;;;5018134;28;20188;-87
2023/03/16 03:17:28;;;;;;;0.10;0.10;;;0.80;99.90;;;;;;5018310;28;20180;-86
2023/03/16 03:19:55;;;;;;;0.10;0.10;;;0.80;99.90;;;;;;5018884;28;20200;-87
2023/03/16 03:22:21;;;;;;;0.10;0.10;;;0.80;99.90;;;;;;5018004;28;20218;-87
2023/03/16 03:24:46;;;;;;;0.10;0.10;;;0.90;99.90;;;;;;5018370;28;20253;-87
2023/03/16 03:27:12;;;;;;;0.10;0.10;;;1.00;99.90;;;;;;5016640;28;20289;-87
2023/03/16 03:29:38;;;;;;;0.00;0.00;;;1.00;99.90;;;;;;5018786;28;21273;-86
2023/03/16 03:32:04;;;;;;;0.00;0.00;;;1.00;99.90;;;;;;5026913;28;20294;-87
2023/03/16 03:34:30;;;;;;;0.10;0.10;;;1.00;99.90;;;;;;5036501;28;20674;-87
2023/03/16 03:36:56;;;;;;;0.10;0.10;;;1.00;99.90;;;;;;5019249;28;20188;-87
2023/03/16 03:39:22;;;;;;;0.00;0.00;;;1.00;99.90;;;;;;5016164;28;20210;-86
2023/03/16 03:41:48;;;;;;;0.10;0.10;;;1.00;99.90;;;;;;5018210;28;20189;-87
2023/03/16 03:44:14;;;;;;;0.10;0.10;;;0.90;99.90;;;;;;5016824;28;20200;-87
2023/03/16 03:46:39;;;;;;;0.10;0.10;;;0.90;99.90;;;;;;5017272;28;20718;-86
2023/03/16 03:49:05;;;;;;;0.10;0.10;;;1.00;99.90;;;;;;5038074;28;20210;-87
2023/03/16 03:51:31;;;;;;;0.10;0.10;;;0.90;99.90;;;;;;5017545;28;20250;-86
2023/03/16 03:53:57;;;;;;;0.10;0.10;;;1.00;99.90;;;;;;5035520;28;20185;-87
2023/03/16 03:56:23;;;;;;;0.10;0.10;;;0.80;99.90;;;;;;5017141;28;20193;-86
2023/03/16 03:58:49;;;;;;;0.10;0.10;;;0.90;99.90;;;;;;5017166;28;20209;-86
2023/03/16 04:01:14;;;;;;;0.10;0.10;;;0.90;99.90;;;;;;5019232;28;20539;-87
2023/03/16 04:03:40;;;;;;;0.10;0.10;;;0.90;99.90;;;;;;5018960;28;20184;-87
2023/03/16 04:06:08;;;;;;;0.10;0.10;;;0.90;99.90;;;;;;5018980;28;20191;-87
2023/03/16 04:08:34;;;;;;;0.10;0.10;;;0.80;99.90;;;;;;5024119;28;20210;-87
2023/03/16 04:11:00;;;;;;;0.10;0.10;;;0.80;99.90;;;;;;5053548;28;20190;-87
2023/03/16 04:13:26;;;;;;;0.10;0.10;;;0.70;99.90;;;;;;5047850;28;20193;-86
2023/03/16 04:16:04;;;;;;;0.10;0.10;;;0.80;99.90;;;;;;5038432;28;20250;-87
2023/03/16 04:18:37;;;;;;;0.10;0.10;;;0.80;99.90;;;;;;5046878;28;20224;-87
2023/03/16 04:21:07;;;;;;;0.10;0.10;;;0.90;99.90;;;;;;5026895;28;20277;-87
2023/03/16 04:23:33;;;;;;;0.10;0.10;;;1.00;99.90;;;;;;5036905;28;20199;-86
2023/03/16 04:25:59;;;;;;;0.10;0.10;;;1.00;99.90;;;;;;5039669;28;20238;-87
2023/03/16 04:28:25;;;;;;;0.10;0.10;;;1.10;99.90;;;;;;5037124;28;20206;-87
2023/03/16 04:30:53;;;;;;;0.10;0.10;;;1.10;99.90;;;;;;5017848;28;20190;-87
2023/03/16 04:33:20;;;;;;;0.10;0.10;;;1.10;99.90;;;;;;5034534;28;20528;-87
2023/03/16 04:35:46;;;;;;;0.10;0.10;;;1.00;99.90;;;;;;5017839;28;20558;-86
2023/03/16 04:38:12;;;;;;;0.10;0.10;;;0.90;99.90;;;;;;5017177;28;20283;-87
2023/03/16 04:40:37;;;;;;;0.10;0.10;;;0.80;99.90;;;;;;5018042;28;20267;-87
2023/03/16 04:43:03;;;;;;;0.10;0.10;;;0.80;99.90;;;;;;5016749;28;20232;-87
2023/03/16 04:45:29;;;;;;;0.10;0.10;;;0.80;99.90;;;;;;5016772;28;20190;-87
2023/03/16 04:47:55;;;;;;;0.10;0.10;;;0.70;99.90;;;;;;5017277;28;20272;-87
2023/03/16 04:50:21;;;;;;;0.10;0.10;;;0.70;99.90;;;;;;5016445;28;20185;-87
2023/03/16 04:52:47;;;;;;;0.10;0.10;;;0.60;99.90;;;;;;5024949;28;20324;-86
2023/03/16 04:55:12;;;;;;;0.10;0.10;;;0.60;99.90;;;;;;5028695;28;20191;-87
2023/03/16 04:57:38;;;;;;;0.03;0.03;;;0.70;99.90;;;;;;5016283;28;20304;-87
2023/03/16 05:00:12;;;;;;;0.10;0.10;;;0.80;99.90;;;;;;5017160;28;20271;-85
2023/03/16 05:02:38;;;;;;;0.00;0.00;;;0.90;99.90;;;;;;5016145;28;21220;-85
2023/03/16 05:05:04;;;;;;;0.10;0.10;;;0.90;99.90;;;;;;5017338;28;20278;-87
2023/03/16 05:07:31;;;;;;;0.10;0.10;;;0.90;99.90;;;;;;5033715;28;20194;-87
2023/03/16 05:09:56;;;;;;;0.10;0.10;;;1.00;99.90;;;;;;5014741;28;20203;-87
2023/03/16 05:12:22;;;;;;;0.10;0.10;;;1.10;99.90;;;;;;5014680;28;20699;-86
2023/03/16 05:14:47;;;;;;;0.10;0.10;;;1.20;99.90;;;;;;5034613;28;20267;-87
2023/03/16 05:17:13;;;;;;;0.00;0.00;;;1.20;99.90;;;;;;5016289;28;20275;-88
2023/03/16 05:19:39;;;;;;;0.10;0.10;;;1.30;99.90;;;;;;5015620;28;20208;-86
2023/03/16 05:22:05;;;;;;;0.10;0.10;;;1.30;99.90;;;;;;5032086;28;20225;-87
2023/03/16 05:24:31;;;;;;;0.10;0.10;;;1.20;99.90;;;;;;5017906;28;20181;-86
2023/03/16 05:26:56;;;;;;;0.10;0.10;;;1.30;99.90;;;;;;5024435;28;20235;-87
2023/03/16 05:29:22;;;;;;;0.07;0.07;;;1.40;99.90;;;;;;5014369;28;20214;-85
2023/03/16 05:31:47;;;;;;;0.07;0.07;;;1.40;99.90;;;;;;5015549;28;20211;-85
2023/03/16 05:34:14;;;;;;;0.10;0.10;;;1.50;99.90;;;;;;5015589;28;21027;-86
2023/03/16 05:36:39;;;;;;;0.00;0.00;;;1.50;99.90;;;;;;5016220;28;20585;-85
2023/03/16 05:39:07;;;;;;;0.10;0.10;;;1.40;99.90;;;;;;5014650;28;20210;-86
2023/03/16 05:41:33;;;;;;;0.10;0.10;;;1.20;99.90;;;;;;5014172;28;20189;-84
2023/03/16 05:43:58;;;;;;;0.10;0.10;;;1.10;99.90;;;;;;5016971;28;20186;-86
2023/03/16 05:46:24;;;;;;;0.00;0.00;;;1.30;99.90;;;;;;5015742;28;20197;-85
2023/03/16 05:48:49;;;;;;;0.10;0.10;;;1.30;99.90;;;;;;5016734;28;20705;-85
2023/03/16 05:51:15;;;;;;;0.10;0.10;;;1.50;99.90;;;;;;5014874;28;20217;-87
2023/03/16 05:53:41;;;;;;;0.00;0.00;;;1.60;99.90;;;;;;5016524;28;20281;-86
2023/03/16 05:56:07;;;;;;;0.00;0.00;;;1.80;99.90;;;;;;5017924;28;20342;-86
2023/03/16 05:58:32;;;;;;;0.10;0.10;;;1.90;99.90;;;;;;5018987;28;20226;-86
2023/03/16 06:01:01;;;;;;;0.03;0.03;;;1.90;99.90;;;;;;5015130;28;20189;-87
2023/03/16 06:03:27;;;;;;;0.00;0.00;;;2.00;99.90;;;;;;5016568;28;20196;-86
2023/03/16 06:05:52;;;;;;;0.10;0.10;;;1.70;99.90;;;;;;5016372;28;20247;-86
2023/03/16 06:08:18;;;;;;;0.10;0.10;;;1.90;99.90;;;;;;5016307;28;20203;-87
2023/03/16 06:10:46;;;;;;;0.10;0.10;;;2.00;99.90;;;;;;5015085;28;20276;-85
2023/03/16 06:13:12;;;;;;;0.10;0.10;;;2.20;99.90;;;;;;5016772;28;20181;-82
2023/03/16 06:15:37;;;;;;;0.77;0.77;;;2.30;99.90;;;;;;5017851;28;20183;-83
2023/03/16 06:18:03;;;;;;;0.10;0.10;;;2.40;99.90;;;;;;5034721;28;20293;-82
2023/03/16 06:20:28;;;;;;;0.10;0.10;;;2.50;99.90;;;;;;5017956;28;20274;-82
2023/03/16 06:22:54;;;;;;;0.00;0.00;;;2.30;99.90;;;;;;5017481;28;20193;-82
2023/03/16 06:25:19;;;;;;;0.10;0.10;;;2.50;99.90;;;;;;5016308;28;20713;-84
2023/03/16 06:27:45;;;;;;;0.10;0.10;;;2.80;99.90;;;;;;5019430;28;20190;-83
2023/03/16 06:30:12;;;;;;;0.00;0.00;;;3.00;99.90;;;;;;5031366;28;20196;-83
2023/03/16 06:32:40;;;;;;;0.10;0.10;;;3.30;99.90;;;;;;5017179;28;20226;-82
2023/03/16 06:35:07;;;;;;;0.10;0.10;;;3.40;99.90;;;;;;5018325;28;20236;-82
2023/03/16 06:37:33;;;;;;;0.00;0.00;;;3.60;99.90;;;;;;5015126;28;20185;-82
2023/03/16 06:39:58;;;;;;;0.03;0.03;;;3.40;99.90;;;;;;5018802;28;20290;-83
2023/03/16 06:42:24;;;;;;;0.00;0.00;;;3.00;99.90;;;;;;5018326;28;20289;-83
2023/03/16 06:44:51;;;;;;;0.00;0.00;;;3.10;99.90;;;;;;5032912;28;20246;-84
2023/03/16 06:47:16;;;;;;;0.10;0.10;;;3.00;99.90;;;;;;5014838;28;20190;-84
2023/03/16 06:49:42;;;;;;;0.10;0.10;;;3.20;99.90;;;;;;5020841;28;20201;-83
2023/03/16 06:52:09;;;;;;;0.00;0.00;;;3.10;99.90;;;;;;5030891;28;20301;-84
2023/03/16 06:54:36;;;;;;;0.10;0.10;;;3.40;99.90;;;;;;5014498;28;20189;-84
2023/03/16 06:57:02;;;;;;;0.10;0.10;;;3.30;99.90;;;;;;5016888;28;20262;-84
2023/03/16 06:59:28;;;;;;;0.10;0.10;;;3.10;99.90;;;;;;5018857;28;20288;-84
2023/03/16 07:01:53;;;;;;;0.10;0.10;;;3.10;99.90;;;;;;5019126;28;20197;-84
2023/03/16 07:04:19;;;;;;;0.10;0.10;;;3.00;99.90;;;;;;5019210;28;20218;-84
2023/03/16 07:06:44;;;;;;;0.10;0.10;;;3.10;99.90;;;;;;5021089;28;20190;-87
2023/03/16 07:09:11;;;;;;;0.10;0.10;;;3.00;99.90;;;;;;5017687;28;20206;-85
2023/03/16 07:11:37;;;;;;;0.10;0.10;;;3.00;99.90;;;;;;5019010;28;20229;-86
2023/03/16 07:14:02;;;;;;;0.40;0.40;;;3.30;99.90;;;;;;5021710;28;20639;-84
2023/03/16 07:16:28;;;;;;;0.10;0.10;;;3.40;99.90;;;;;;5020538;28;20187;-84
2023/03/16 07:18:54;;;;;;;0.10;0.10;;;3.60;99.90;;;;;;5021916;28;20300;-83
2023/03/16 07:21:20;;;;;;;0.10;0.10;;;3.60;99.90;;;;;;5023501;28;20880;-83
2023/03/16 07:23:46;;;;;;;0.10;0.10;;;3.50;99.90;;;;;;5023079;28;20197;-84
2023/03/16 07:26:12;;;;;;;0.10;0.10;;;3.40;99.90;;;;;;5039650;28;20205;-83
2023/03/16 07:28:38;;;;;;;0.10;0.10;;;3.50;99.90;;;;;;5026371;28;20336;-84
2023/03/16 07:31:05;;;;;;;0.00;0.00;;;3.40;99.90;;;;;;5029174;28;20372;-84
2023/03/16 07:33:34;;;;;;;0.10;0.10;;;3.50;99.90;;;;;;5028510;28;20190;-84
2023/03/16 07:36:03;;;;;;;0.10;0.10;;;3.80;99.90;;;;;;5026467;28;20187;-84
2023/03/16 07:38:29;;;;;;;0.10;0.10;;;3.90;99.90;;;;;;5028049;28;20585;-84
2023/03/16 07:40:54;;;;;;;0.10;0.10;;;4.00;99.90;;;;;;5025655;28;20174;-84
2023/03/16 07:43:20;;;;;;;0.10;0.10;;;4.20;99.90;;;;;;5047259;28;20189;-83
2023/03/16 07:45:50;;;;;;;0.07;0.07;;;4.50;99.90;;;;;;5026816;28;20254;-84
2023/03/16 07:48:16;;;;;;;0.10;0.10;;;4.70;99.90;;;;;;5032731;28;20222;-84
2023/03/16 07:50:41;;;;;;;0.10;0.10;;;5.00;99.90;;;;;;5034277;28;20190;-84
2023/03/16 07:53:07;;;;;;;0.10;0.10;;;5.30;99.90;;;;;;5034315;28;20257;-83
2023/03/16 07:55:35;;;;;;;0.10;0.10;;;5.20;99.90;;;;;;5031785;28;20184;-82
2023/03/16 07:58:01;;;;;;;0.00;0.00;;;5.60;99.90;;;;;;5042436;28;20204;-82
2023/03/16 08:00:27;;;;;;;0.10;0.10;;;6.00;99.90;;;;;;5023513;28;20190;-83
2023/03/16 08:02:54;;;;;;;0.10;0.10;;;6.20;99.90;;;;;;5022854;28;20243;-82
2023/03/16 08:05:20;;;;;;;0.10;0.10;;;6.20;99.90;;;;;;5041828;28;20195;-83
2023/03/16 08:07:45;;;;;;;0.10;0.10;;;6.30;99.90;;;;;;5043528;28;20175;-83
2023/03/16 08:10:11;;;;;;;0.10;0.10;;;6.30;99.90;;;;;;5023559;28;20211;-82
2023/03/16 08:12:36;;;;;;;0.10;0.10;;;6.20;99.90;;;;;;5022480;28;20585;-82
2023/03/16 08:15:03;;;;;;;0.10;0.10;;;5.90;99.90;;;;;;5039705;28;20257;-83
2023/03/16 08:17:30;;;;;;;0.10;0.10;;;5.80;99.90;;;;;;5021917;28;20393;-82
2023/03/16 08:19:56;;;;;;;0.10;0.10;;;5.80;99.90;;;;;;5038616;28;20278;-82
2023/03/16 08:22:22;;;;;;;0.10;0.10;;;5.90;99.90;;;;;;5020956;28;20187;-83
2023/03/16 08:24:48;;;;;;;0.10;0.10;;;6.50;99.90;;;;;;5031364;28;20194;-83
2023/03/16 08:27:14;;;;;;;0.10;0.10;;;6.80;99.90;;;;;;5022245;28;20177;-83
2023/03/16 08:29:40;;;;;;;0.10;0.10;;;7.30;99.90;;;;;;5019089;28;20327;-82
2023/03/16 08:32:06;;;;;;;0.10;0.10;;;7.20;99.90;;;;;;5022885;28;20701;-82
2023/03/16 08:34:31;;;;;;;0.10;0.10;;;6.80;99.90;;;;;;5022010;28;20198;-83
2023/03/16 08:36:58;;;;;;;0.10;0.10;;;7.10;99.90;;;;;;5021410;28;20183;-84
2023/03/16 08:39:24;;;;;;;0.10;0.10;;;7.10;99.90;;;;;;5021175;28;20201;-82
2023/03/16 08:41:50;;;;;;;0.10;0.10;;;6.80;99.90;;;;;;5021964;28;20192;-83
2023/03/16 08:44:16;;;;;;;0.03;0.03;;;7.40;99.90;;;;;;5039580;28;20267;-83
2023/03/16 08:46:42;;;;;;;0.10;0.10;;;7.90;99.90;;;;;;5023449;28;20238;-83
2023/03/16 08:49:07;;;;;;;0.10;0.10;;;7.80;99.90;;;;;;5022902;28;20786;-82
2023/03/16 08:51:33;;;;;;;0.00;0.00;;;8.10;99.90;;;;;;5017077;28;20720;-82
2023/03/16 08:53:58;;;;;;;0.10;0.10;;;8.40;99.90;;;;;;5016793;28;20414;-82
2023/03/16 08:56:24;;;;;;;0.10;0.10;;;8.40;99.90;;;;;;5019395;28;20193;-83
2023/03/16 08:58:51;;;;;;;0.10;0.10;;;7.80;99.90;;;;;;5017871;28;20333;-83
2023/03/16 09:01:18;;;;;;;0.10;0.10;;;8.20;99.90;;;;;;5020663;28;20210;-83
2023/03/16 09:03:47;;;;;;;0.03;0.03;;;8.30;99.90;;;;;;5018494;28;20648;-82
2023/03/16 09:06:14;;;;;;;0.10;0.10;;;7.60;99.90;;;;;;5017368;28;20194;-83
2023/03/16 09:08:40;;;;;;;0.10;0.10;;;7.30;99.90;;;;;;5017327;28;20681;-83
2023/03/16 09:11:13;;;;;;;0.10;0.10;;;6.90;99.90;;;;;;5019512;28;20227;-83
2023/03/16 09:13:39;;;;;;;0.00;0.00;;;7.60;99.90;;;;;;5014699;28;20184;-84
2023/03/16 09:16:06;;;;;;;0.10;0.10;;;7.80;99.90;;;;;;5009660;28;20196;-84
2023/03/16 09:18:34;;;;;;;0.00;0.00;;;8.00;99.90;;;;;;5013001;28;20239;-84
2023/03/16 09:21:02;;;;;;;0.10;0.10;;;7.50;99.90;;;;;;5014304;28;20185;-84
2023/03/16 09:23:29;;;;;;;0.10;0.10;;;7.50;99.90;;;;;;5032811;28;20678;-84
2023/03/16 09:26:00;;;;;;;0.10;0.10;;;7.70;99.90;;;;;;5016138;28;20185;-84
2023/03/16 09:28:27;;;;;;;0.10;0.10;;;7.30;99.90;;;;;;5013952;28;20307;-84
2023/03/16 09:30:56;;;;;;;0.10;0.10;;;8.00;99.90;;;;;;5012772;28;20184;-84
2023/03/16 09:33:27;;;;;;;0.10;0.10;;;8.10;99.90;;;;;;5030590;28;20189;-85
2023/03/16 09:35:54;;;;;;;0.10;0.10;;;7.30;99.90;;;;;;5015440;28;20181;-85
2023/03/16 09:38:20;;;;;;;0.10;0.10;;;7.50;99.90;;;;;;5015597;28;20311;-85
2023/03/16 09:40:49;;;;;;;0.10;0.10;;;7.80;99.90;;;;;;5016546;28;20292;-85
2023/03/16 09:43:43;;;;;;;0.10;0.10;;;8.40;99.90;;;;;;5017216;28;20208;-85
2023/03/16 09:46:18;;;;;;;0.10;0.10;;;8.90;99.90;;;;;;5016537;28;20188;-85
2023/03/16 09:48:46;;;;;;;0.10;0.10;;;9.10;99.90;;;;;;5015764;28;20201;-85
2023/03/16 09:51:24;;;;;;;0.10;0.10;;;8.80;99.90;;;;;;5040697;28;20203;-85
2023/03/16 09:53:55;;;;;;;0.10;0.10;;;8.70;99.90;;;;;;5038045;28;20185;-85
2023/03/16 09:56:32;;;;;;;0.10;0.10;;;8.80;99.90;;;;;;5015445;28;20190;-85
2023/03/16 09:58:58;;;;;;;0.10;0.10;;;9.40;99.90;;;;;;5016091;28;20648;-86
2023/03/16 10:01:53;;;;;;;0.10;0.10;;;9.10;99.90;;;;;;5015735;28;20198;-85
2023/03/16 10:04:28;;;;;;;0.10;0.10;;;9.50;99.90;;;;;;5012755;28;20205;-85
2023/03/16 10:07:09;;;;;;;0.10;0.10;;;10.10;99.90;;;;;;5014171;28;20182;-85
2023/03/16 10:09:51;;;;;;;0.10;0.10;;;10.30;99.90;;;;;;5029318;28;20202;-84
2023/03/16 10:12:18;;;;;;;0.10;0.10;;;10.70;99.90;;;;;;5013748;28;20224;-85
2023/03/16 10:15:06;;;;;;;0.10;0.10;;;11.00;99.90;;;;;;5012277;28;20189;-85
2023/03/16 10:17:43;;;;;;;0.10;0.10;;;9.90;99.90;;;;;;5028061;28;20190;-85
2023/03/16 10:20:19;;;;;;;0.10;0.10;;;10.00;99.90;;;;;;5031514;28;20194;-85
2023/03/16 10:22:47;;;;;;;0.10;0.10;;;10.80;99.90;;;;;;5012773;28;20252;-85
2023/03/16 10:25:42;;;;;;;0.10;0.10;;;11.10;99.90;;;;;;5030937;28;20224;-85
2023/03/16 10:28:14;;;;;;;0.10;0.10;;;11.10;99.90;;;;;;5016316;28;20239;-85
2023/03/16 10:30:41;;;;;;;0.10;0.10;;;11.20;99.90;;;;;;5031730;28;20186;-84
2023/03/16 10:33:28;;;;;;;0.10;0.10;;;11.20;99.90;;;;;;5015424;28;20303;-85
2023/03/16 10:36:01;;;;;;;0.10;0.10;;;11.50;99.90;;;;;;5017720;28;20205;-83
2023/03/16 10:38:41;;;;;;;0.10;0.10;;;11.30;99.90;;;;;;5018133;28;20202;-83
2023/03/16 10:41:20;;;;;;;0.03;0.03;;;11.30;99.90;;;;;;5017369;28;20802;-84
2023/03/16 10:43:58;;;;;;;0.10;0.10;;;10.80;99.90;;;;;;5035193;28;20196;-83
2023/03/16 10:46:26;;;;;;;0.07;0.07;;;10.80;99.90;;;;;;5018518;28;20187;-85
2023/03/16 10:48:58;;;;;;;0.10;0.10;;;10.90;99.90;;;;;;5035238;28;20729;-83
2023/03/16 10:51:26;;;;;;;0.10;0.10;;;11.10;99.90;;;;;;5026033;28;20709;-84
2023/03/16 10:53:53;;;;;;;0.10;0.10;;;11.30;99.90;;;;;;5020075;28;20208;-83
2023/03/16 10:56:22;;;;;;;0.00;0.00;;;11.40;99.90;;;;;;5016760;28;20635;-82
2023/03/16 10:58:48;;;;;;;0.10;0.10;;;11.50;99.90;;;;;;5016275;28;20202;-82
2023/03/16 11:01:25;;;;;;;0.10;0.10;;;11.70;99.90;;;;;;5015312;28;20193;-83
2023/03/16 11:03:54;;;;;;;0.10;0.10;;;11.80;99.90;;;;;;5020317;28;20235;-83
2023/03/16 11:06:31;;;;;;;0.10;0.10;;;11.30;99.90;;;;;;5018583;28;20191;-83
2023/03/16 11:09:41;;;;;;;0.10;0.10;;;11.30;99.90;;;;;;5015677;28;20247;-83
2023/03/16 11:12:19;;;;;;;0.10;0.10;;;11.80;99.90;;;;;;5020675;28;20208;-82
2023/03/16 11:14:45;;;;;;;0.10;0.10;;;11.90;99.90;;;;;;5017569;28;20186;-83
2023/03/16 11:17:20;;;;;;;0.10;0.10;;;12.10;99.90;;;;;;5018847;28;20186;-83
2023/03/16 11:19:58;;;;;;;0.00;0.00;;;12.00;99.90;;;;;;5021295;28;20224;-83
2023/03/16 11:22:25;;;;;;;0.10;0.10;;;11.60;99.90;;;;;;5017969;28;20241;-83
2023/03/16 11:25:11;;;;;;;0.10;0.10;;;11.70;99.90;;;;;;5017983;28;20220;-83
2023/03/16 11:27:57;;;;;;;0.10;0.10;;;11.80;99.90;;;;;;5017956;28;20182;-83
2023/03/16 11:30:37;;;;;;;0.10;0.10;;;12.00;99.90;;;;;;5017226;28;20198;-82
2023/03/16 11:33:11;;;;;;;0.10;0.10;;;12.10;99.90;;;;;;5017628;28;20370;-83
2023/03/16 11:35:50;;;;;;;0.10;0.10;;;12.10;99.90;;;;;;5035133;28;20190;-83
2023/03/16 11:38:18;;;;;;;0.10;0.10;;;12.10;99.90;;;;;;5019480;28;20292;-82
2023/03/16 11:41:01;;;;;;;0.10;0.10;;;12.30;99.90;;;;;;5012488;28;20174;-82
2023/03/16 11:43:52;;;;;;;0.10;0.10;;;12.80;99.90;;;;;;5015457;28;20610;-82
2023/03/16 11:46:35;;;;;;;0.10;0.10;;;12.90;99.90;;;;;;5018403;28;20269;-82
2023/03/16 11:49:13;;;;;;;0.10;0.10;;;13.20;99.90;;;;;;5015868;28;20781;-81
2023/03/16 11:51:42;;;;;;;0.07;0.07;;;12.70;99.90;;;;;;5034660;28;20681;-82
2023/03/16 11:54:36;;;;;;;0.10;0.10;;;12.70;99.90;;;;;;5017845;28;20198;-82
2023/03/16 11:57:30;;;;;;;0.00;0.00;;;12.90;99.90;;;;;;5035140;28;20190;-82
2023/03/16 12:00:22;;;;;;;0.10;0.10;;;13.00;99.90;;;;;;5038868;28;20198;-81
2023/03/16 12:03:16;;;;;;;0.00;0.00;;;12.80;99.90;;;;;;5009088;28;21447;-82
2023/03/16 12:06:00;;;;;;;0.20;0.20;;;12.80;99.90;;;;;;5035759;28;20185;-82
2023/03/16 12:08:47;;;;;;;0.10;0.10;;;12.80;99.90;;;;;;5015863;28;20264;-82
2023/03/16 12:11:42;;;;;;;0.10;0.10;;;12.70;99.90;;;;;;4983692;28;20207;-82
2023/03/16 12:14:40;;;;;;;0.10;0.10;;;12.80;99.90;;;;;;4998296;28;20763;-83
2023/03/16 12:17:15;;;;;;;0.10;0.10;;;13.20;99.90;;;;;;5031708;28;20678;-83
2023/03/16 12:19:46;;;;;;;0.10;0.10;;;13.50;99.90;;;;;;5032634;28;20199;-84
2023/03/16 12:22:24;;;;;;;0.10;0.10;;;13.60;99.90;;;;;;5011064;28;20214;-83
2023/03/16 12:24:50;;;;;;;0.10;0.10;;;13.10;99.90;;;;;;5027950;28;20673;-87
2023/03/16 12:27:23;;;;;;;0.10;0.10;;;13.20;99.90;;;;;;5033488;28;20238;-82
2023/03/16 12:30:11;;;;;;;0.10;0.10;;;13.50;99.90;;;;;;5028865;28;20698;-83
2023/03/16 12:32:49;;;;;;;0.10;0.10;;;13.80;99.90;;;;;;5018437;28;20200;-84
2023/03/16 12:35:40;;;;;;;0.10;0.10;;;13.70;99.90;;;;;;5036069;28;20218;-83
2023/03/16 12:38:21;;;;;;;0.10;0.10;;;13.20;99.90;;;;;;5035785;28;20237;-84
2023/03/16 12:40:54;;;;;;;0.10;0.10;;;13.10;99.90;;;;;;5019719;28;20180;-84
2023/03/16 12:43:30;;;;;;;0.10;0.10;;;13.40;99.90;;;;;;5016936;28;20197;-84
2023/03/16 12:46:17;;;;;;;0.10;0.10;;;13.90;99.90;;;;;;5017773;28;20241;-84
2023/03/16 12:48:51;;;;;;;0.10;0.10;;;13.90;99.90;;;;;;5012008;28;20242;-84
2023/03/16 12:51:16;;;;;;;0.10;0.10;;;14.00;99.90;;;;;;5034111;28;20257;-84
2023/03/16 12:53:52;;;;;;;0.10;0.10;;;13.20;99.90;;;;;;5017344;28;20218;-84
2023/03/16 12:56:25;;;;;;;0.10;0.10;;;13.30;99.90;;;;;;5025734;28;20184;-84
2023/03/16 12:58:56;;;;;;;0.10;0.10;;;13.50;99.90;;;;;;5033216;28;20248;-83
2023/03/16 13:01:27;;;;;;;0.10;0.10;;;14.10;99.90;;;;;;5033784;28;20199;-83
2023/03/16 13:04:20;;;;;;;0.10;0.10;;;14.40;99.90;;;;;;5016775;28;20527;-84
2023/03/16 13:06:59;;;;;;;0.10;0.10;;;13.90;99.90;;;;;;5013889;28;20195;-84
2023/03/16 13:09:27;;;;;;;0.10;0.10;;;13.30;99.90;;;;;;5030851;28;20216;-84